createdAt,value
2023-01-23T00:01:13.130Z,100.00
2023-01-23T00:03:40.083Z,100.00
2023-01-23T00:06:12.349Z,100.00
2023-01-23T00:08:40.740Z,100.00
2023-01-23T00:11:11.139Z,99.78
2023-01-23T00:13:38.202Z,99.66
2023-01-23T00:16:08.289Z,99.18
2023-01-23T00:18:35.210Z,98.96
2023-01-23T00:21:10.843Z,98.80
2023-01-23T00:23:37.938Z,98.66
2023-01-23T00:26:11.791Z,98.78
2023-01-23T00:28:39.355Z,98.45
2023-01-23T00:31:10.431Z,99.26
2023-01-23T00:33:37.401Z,99.49
2023-01-23T00:36:04.572Z,99.93
2023-01-23T00:38:32.112Z,100.00
2023-01-23T00:40:59.238Z,100.00
2023-01-23T00:43:26.119Z,100.00
2023-01-23T00:45:52.975Z,100.00
2023-01-23T00:48:19.861Z,100.00
2023-01-23T00:50:47.158Z,100.00
2023-01-23T00:53:14.150Z,100.00
2023-01-23T00:55:41.781Z,100.00
2023-01-23T00:58:09.570Z,100.00
2023-01-23T01:00:38.323Z,100.00
2023-01-23T01:03:06.523Z,100.00
2023-01-23T01:05:34.999Z,100.00
2023-01-23T01:08:04.024Z,100.00
2023-01-23T01:10:32.895Z,100.00
2023-01-23T01:13:02.172Z,100.00
2023-01-23T01:15:29.794Z,100.00
2023-01-23T01:17:57.995Z,100.00
2023-01-23T01:20:26.674Z,100.00
2023-01-23T01:22:55.080Z,100.00
2023-01-23T01:25:22.435Z,100.00
2023-01-23T01:27:49.332Z,100.00
2023-01-23T01:30:18.552Z,100.00
2023-01-23T01:32:47.544Z,100.00
2023-01-23T01:35:14.399Z,100.00
2023-01-23T01:37:41.964Z,100.00
2023-01-23T01:40:13.704Z,100.00
2023-01-23T01:42:42.855Z,100.00
2023-01-23T01:45:47.107Z,100.00
2023-01-23T01:48:15.464Z,100.00
2023-01-23T01:50:42.748Z,100.00
2023-01-23T01:53:10.791Z,100.00
2023-01-23T01:55:39.463Z,100.00
2023-01-23T01:58:07.336Z,100.00
2023-01-23T02:00:34.240Z,100.00
2023-01-23T02:03:03.644Z,100.00
2023-01-23T02:05:46.530Z,100.00
2023-01-23T02:08:19.408Z,100.00
2023-01-23T02:10:47.517Z,100.00
2023-01-23T02:13:23.396Z,100.00
2023-01-23T02:15:52.895Z,100.00
2023-01-23T02:18:21.630Z,100.00
2023-01-23T02:20:53.212Z,100.00
2023-01-23T02:23:30.841Z,100.00
2023-01-23T02:26:11.310Z,100.00
2023-01-23T02:28:41.729Z,100.00
2023-01-23T02:31:09.647Z,100.00
2023-01-23T02:33:36.461Z,100.00
2023-01-23T02:36:05.669Z,100.00
2023-01-23T02:38:40.271Z,100.00
2023-01-23T02:41:12.033Z,100.00
2023-01-23T02:43:39.813Z,100.00
2023-01-23T02:46:11.403Z,100.00
2023-01-23T02:48:40.141Z,100.00
2023-01-23T02:51:07.644Z,100.00
2023-01-23T02:53:34.543Z,100.00
2023-01-23T02:56:01.371Z,100.00
2023-01-23T02:58:47.440Z,100.00
2023-01-23T03:01:14.249Z,100.00
2023-01-23T03:03:43.958Z,100.00
2023-01-23T03:06:11.699Z,100.00
2023-01-23T03:08:48.245Z,100.00
2023-01-23T03:11:18.183Z,100.00
2023-01-23T03:13:46.914Z,100.00
2023-01-23T03:16:14.400Z,100.00
2023-01-23T03:18:53.564Z,100.00
2023-01-23T03:21:21.668Z,100.00
2023-01-23T03:23:48.589Z,100.00
2023-01-23T03:26:18.168Z,100.00
2023-01-23T03:29:04.468Z,100.00
2023-01-23T03:31:31.291Z,100.00
2023-01-23T03:33:58.342Z,100.00
2023-01-23T03:36:25.239Z,100.00
2023-01-23T03:39:10.758Z,100.00
2023-01-23T03:41:39.250Z,100.00
2023-01-23T03:44:06.726Z,100.00
2023-01-23T03:46:33.571Z,100.00
2023-01-23T03:49:00.430Z,100.00
2023-01-23T03:51:27.431Z,100.00
2023-01-23T03:53:54.644Z,100.00
2023-01-23T03:56:21.720Z,100.00
2023-01-23T03:58:48.623Z,100.00
2023-01-23T04:01:15.536Z,100.00
2023-01-23T04:03:43.924Z,100.00
2023-01-23T04:06:10.952Z,100.00
2023-01-23T04:08:38.196Z,100.00
2023-01-23T04:11:08.075Z,100.00
2023-01-23T04:13:35.435Z,100.00
2023-01-23T04:16:02.779Z,100.00
2023-01-23T04:18:29.810Z,100.00
2023-01-23T04:20:57.471Z,100.00
2023-01-23T04:23:24.391Z,100.00
2023-01-23T04:25:52.778Z,100.00
2023-01-23T04:28:20.259Z,100.00
2023-01-23T04:30:51.272Z,100.00
2023-01-23T04:33:24.458Z,100.00
2023-01-23T04:35:57.614Z,100.00
2023-01-23T04:38:27.667Z,100.00
2023-01-23T04:40:55.217Z,100.00
2023-01-23T04:43:22.570Z,100.00
2023-01-23T04:45:55.750Z,100.00
2023-01-23T04:48:50.161Z,100.00
2023-01-23T04:51:17.732Z,100.00
2023-01-23T04:53:45.612Z,100.00
2023-01-23T04:56:12.462Z,100.00
2023-01-23T04:58:39.296Z,100.00
2023-01-23T05:01:08.092Z,100.00
2023-01-23T05:03:37.385Z,100.00
2023-01-23T05:06:04.514Z,100.00
2023-01-23T05:08:31.561Z,100.00
2023-01-23T05:11:11.686Z,100.00
2023-01-23T05:13:38.754Z,100.00
2023-01-23T05:16:06.538Z,100.00
2023-01-23T05:18:50.054Z,100.00
2023-01-23T05:21:16.895Z,100.00
2023-01-23T05:23:43.742Z,100.00
2023-01-23T05:26:13.295Z,100.00
2023-01-23T05:28:40.151Z,100.00
2023-01-23T05:31:07.141Z,100.00
2023-01-23T05:33:40.765Z,100.00
2023-01-23T05:36:08.085Z,100.00
2023-01-23T05:38:35.165Z,100.00
2023-01-23T05:41:03.651Z,100.00
2023-01-23T05:43:50.275Z,100.00
2023-01-23T05:46:28.418Z,100.00
2023-01-23T05:48:56.400Z,100.00
2023-01-23T05:51:24.833Z,100.00
2023-01-23T05:53:52.973Z,100.00
2023-01-23T05:56:20.122Z,100.00
2023-01-23T05:59:10.183Z,100.00
2023-01-23T06:01:45.106Z,100.00
2023-01-23T06:04:30.631Z,100.00
2023-01-23T06:07:17.828Z,100.00
2023-01-23T06:09:46.312Z,100.00
2023-01-23T06:12:13.743Z,100.00
2023-01-23T06:14:40.934Z,100.00
2023-01-23T06:17:08.914Z,100.00
2023-01-23T06:19:35.978Z,100.00
2023-01-23T06:22:03.841Z,100.00
2023-01-23T06:24:37.898Z,100.00
2023-01-23T06:27:08.376Z,100.00
2023-01-23T06:29:37.037Z,100.00
2023-01-23T06:32:04.679Z,100.00
2023-01-23T06:34:31.677Z,100.00
2023-01-23T06:37:02.957Z,100.00
2023-01-23T06:39:34.183Z,100.00
2023-01-23T06:42:02.037Z,100.00
2023-01-23T06:44:29.088Z,100.00
2023-01-23T06:46:56.157Z,100.00
2023-01-23T06:49:24.510Z,100.00
2023-01-23T06:51:52.212Z,100.00
2023-01-23T06:54:19.175Z,100.00
2023-01-23T06:56:46.210Z,100.00
2023-01-23T06:59:13.355Z,100.00
2023-01-23T07:01:41.085Z,100.00
2023-01-23T07:04:19.604Z,100.00
2023-01-23T07:07:08.167Z,100.00
2023-01-23T07:09:35.114Z,100.00
2023-01-23T07:12:08.128Z,100.00
2023-01-23T07:14:35.316Z,100.00
2023-01-23T07:17:02.726Z,100.00
2023-01-23T07:19:30.471Z,100.00
2023-01-23T07:22:01.173Z,100.00
2023-01-23T07:24:30.067Z,100.00
2023-01-23T07:26:56.850Z,100.00
2023-01-23T07:29:23.900Z,100.00
2023-01-23T07:31:50.765Z,100.00
2023-01-23T07:34:17.651Z,100.00
2023-01-23T07:36:44.472Z,100.00
2023-01-23T07:39:11.336Z,100.00
2023-01-23T07:41:38.136Z,100.00
2023-01-23T07:44:07.778Z,100.00
2023-01-23T07:46:34.826Z,100.00
2023-01-23T07:49:01.797Z,100.00
2023-01-23T07:51:28.729Z,100.00
2023-01-23T07:53:55.642Z,100.00
2023-01-23T07:56:22.560Z,100.00
2023-01-23T07:58:51.123Z,100.00
2023-01-23T08:01:19.376Z,100.00
2023-01-23T08:03:47.166Z,100.00
2023-01-23T08:06:14.894Z,100.00
2023-01-23T08:08:41.724Z,100.00
2023-01-23T08:11:12.861Z,100.00
2023-01-23T08:13:40.187Z,100.00
2023-01-23T08:16:07.885Z,100.00
2023-01-23T08:18:35.086Z,100.00
2023-01-23T08:21:03.425Z,100.00
2023-01-23T08:23:32.548Z,100.00
2023-01-23T08:26:02.124Z,100.00
2023-01-23T08:28:29.154Z,100.00
2023-01-23T08:30:59.979Z,100.00
2023-01-23T08:33:26.835Z,100.00
2023-01-23T08:35:56.665Z,100.00
2023-01-23T08:38:24.327Z,100.00
2023-01-23T08:40:53.646Z,100.00
2023-01-23T08:43:20.973Z,100.00
2023-01-23T08:45:52.924Z,100.00
2023-01-23T08:48:21.258Z,100.00
2023-01-23T08:50:48.862Z,100.00
2023-01-23T08:53:16.300Z,100.00
2023-01-23T08:55:43.460Z,100.00
2023-01-23T08:58:13.215Z,100.00
2023-01-23T09:00:40.721Z,100.00
2023-01-23T09:03:09.868Z,100.00
2023-01-23T09:05:38.070Z,100.00
2023-01-23T09:08:05.153Z,100.00
2023-01-23T09:10:32.266Z,100.00
2023-01-23T09:12:59.057Z,100.00
2023-01-23T09:15:25.882Z,100.00
2023-01-23T09:17:52.737Z,100.00
2023-01-23T09:20:19.907Z,100.00
2023-01-23T09:22:47.027Z,100.00
2023-01-23T09:25:14.461Z,100.00
2023-01-23T09:27:41.999Z,100.00
2023-01-23T09:30:09.497Z,100.00
2023-01-23T09:32:36.629Z,100.00
2023-01-23T09:35:04.520Z,100.00
2023-01-23T09:37:51.422Z,100.00
2023-01-23T09:40:22.724Z,100.00
2023-01-23T09:42:50.222Z,100.00
2023-01-23T09:45:21.504Z,100.00
2023-01-23T09:47:53.464Z,100.00
2023-01-23T09:50:31.630Z,100.00
2023-01-23T09:53:05.905Z,100.00
2023-01-23T09:55:49.115Z,100.00
2023-01-23T09:58:22.214Z,100.00
2023-01-23T10:00:51.634Z,100.00
2023-01-23T10:03:18.781Z,100.00
2023-01-23T10:06:00.676Z,100.00
2023-01-23T10:09:01.618Z,100.00
2023-01-23T10:11:49.873Z,100.00
2023-01-23T10:14:52.656Z,100.00
2023-01-23T10:17:44.452Z,100.00
2023-01-23T10:20:11.288Z,100.00
2023-01-23T10:22:47.433Z,100.00
2023-01-23T10:25:25.470Z,100.00
2023-01-23T10:27:58.620Z,100.00
2023-01-23T10:30:28.263Z,100.00
2023-01-23T10:33:02.466Z,100.00
2023-01-23T10:35:48.874Z,100.00
2023-01-23T10:38:49.167Z,100.00
2023-01-23T10:41:23.513Z,100.00
2023-01-23T10:43:55.530Z,100.00
2023-01-23T10:46:29.944Z,100.00
2023-01-23T10:48:56.925Z,100.00
2023-01-23T10:51:38.974Z,100.00
2023-01-23T10:54:11.316Z,100.00
2023-01-23T10:56:47.943Z,100.00
2023-01-23T10:59:35.366Z,100.00
2023-01-23T11:02:14.515Z,100.00
2023-01-23T11:04:54.435Z,100.00
2023-01-23T11:07:34.648Z,100.00
2023-01-23T11:10:12.448Z,100.00
2023-01-23T11:12:48.883Z,100.00
2023-01-23T11:15:22.466Z,100.00
2023-01-23T11:17:52.074Z,100.00
2023-01-23T11:20:31.855Z,100.00
2023-01-23T11:23:02.018Z,100.00
2023-01-23T11:25:32.450Z,100.00
2023-01-23T11:28:01.694Z,100.00
2023-01-23T11:30:42.377Z,100.00
2023-01-23T11:33:34.225Z,100.00
2023-01-23T11:36:19.371Z,99.50
2023-01-23T11:39:05.096Z,100.00
2023-01-23T11:41:35.346Z,99.70
2023-01-23T11:44:10.027Z,100.00
2023-01-23T11:46:53.595Z,99.73
2023-01-23T11:49:29.374Z,98.79
2023-01-23T11:52:08.237Z,98.33
2023-01-23T11:54:50.298Z,98.80
2023-01-23T11:57:30.642Z,98.88
2023-01-23T12:00:22.041Z,100.00
2023-01-23T12:03:19.631Z,99.68
2023-01-23T12:06:19.342Z,100.00
2023-01-23T12:08:49.811Z,98.73
2023-01-23T12:11:20.239Z,98.51
2023-01-23T12:14:19.858Z,98.52
2023-01-23T12:17:08.792Z,98.58
2023-01-23T12:19:41.832Z,97.88
2023-01-23T12:22:42.274Z,97.42
2023-01-23T12:25:44.086Z,98.59
2023-01-23T12:28:24.302Z,97.80
2023-01-23T12:31:15.735Z,98.35
2023-01-23T12:34:19.303Z,99.69
2023-01-23T12:37:09.907Z,97.66
2023-01-23T12:40:03.995Z,97.62
2023-01-23T12:42:42.125Z,97.51
2023-01-23T12:45:12.121Z,97.67
2023-01-23T12:47:42.340Z,98.64
2023-01-23T12:50:35.921Z,98.34
2023-01-23T12:53:11.127Z,98.66
2023-01-23T12:56:01.982Z,97.62
2023-01-23T12:58:32.151Z,97.48
2023-01-23T13:01:38.082Z,96.63
2023-01-23T13:04:34.470Z,96.76
2023-01-23T13:07:39.761Z,96.09
2023-01-23T13:10:59.476Z,94.76
2023-01-23T13:13:27.926Z,93.62
2023-01-23T13:16:15.675Z,94.55
2023-01-23T13:19:16.536Z,95.29
2023-01-23T13:22:18.902Z,94.74
2023-01-23T13:25:18.893Z,94.00
2023-01-23T13:27:49.581Z,95.16
2023-01-23T13:30:23.145Z,95.65
2023-01-23T13:32:51.734Z,94.54
2023-01-23T13:35:42.420Z,94.60
2023-01-23T13:38:21.449Z,94.54
2023-01-23T13:41:11.768Z,94.46
2023-01-23T13:43:53.409Z,94.61
2023-01-23T14:21:49.674Z,96.04
2023-01-23T14:24:42.757Z,95.89
2023-01-23T14:27:21.602Z,96.63
2023-01-23T14:30:09.778Z,96.03
2023-01-23T14:32:38.429Z,97.74
2023-01-23T14:35:18.922Z,97.35
2023-01-23T14:37:47.118Z,97.14
2023-01-23T14:40:26.550Z,96.46
2023-01-23T14:43:05.424Z,97.12
2023-01-23T14:45:33.885Z,97.71
2023-01-23T14:48:08.755Z,97.12
2023-01-23T14:50:36.346Z,97.05
2023-01-23T14:53:07.207Z,97.22
2023-01-23T14:55:41.322Z,97.52
2023-01-23T14:58:18.773Z,96.76
2023-01-23T15:00:49.101Z,98.30
2023-01-23T15:03:44.671Z,97.08
2023-01-23T15:06:31.515Z,97.29
2023-01-23T15:09:07.086Z,98.05
2023-01-23T15:11:34.612Z,97.27
2023-01-23T15:14:02.422Z,97.01
2023-01-23T15:16:38.267Z,97.53
2023-01-23T15:19:22.662Z,97.49
2023-01-23T15:21:50.067Z,98.09
2023-01-23T15:24:21.464Z,97.04
2023-01-23T15:27:05.909Z,96.87
2023-01-23T15:29:33.782Z,98.54
2023-01-23T15:32:01.485Z,97.09
2023-01-23T15:34:32.288Z,97.96
2023-01-23T15:37:20.855Z,98.30
2023-01-23T15:39:52.096Z,97.94
2023-01-23T15:42:18.727Z,97.23
2023-01-23T15:44:45.775Z,96.76
2023-01-23T15:47:12.637Z,97.57
2023-01-23T15:49:40.551Z,97.35
2023-01-23T15:52:23.504Z,97.11
2023-01-23T15:54:57.189Z,97.63
2023-01-23T15:57:24.154Z,97.55
2023-01-23T15:59:51.108Z,97.63
2023-01-23T16:02:39.398Z,98.01
2023-01-23T16:05:08.011Z,98.34
2023-01-23T16:07:37.632Z,97.89
2023-01-23T16:10:18.443Z,97.32
2023-01-23T16:12:48.852Z,97.43
2023-01-23T16:15:16.895Z,98.54
2023-01-23T16:17:44.577Z,97.48
2023-01-23T16:20:23.515Z,97.67
2023-01-23T16:22:53.840Z,97.92
2023-01-23T16:25:53.628Z,97.33
2023-01-23T16:28:23.080Z,97.08
2023-01-23T16:30:51.837Z,97.22
2023-01-23T16:33:20.135Z,97.59
2023-01-23T16:35:47.987Z,98.02
2023-01-23T16:38:20.996Z,98.24
2023-01-23T16:40:50.794Z,97.88
2023-01-23T16:43:17.756Z,96.90
2023-01-23T16:45:44.883Z,96.82
2023-01-23T16:48:21.690Z,96.07
2023-01-23T16:50:57.719Z,95.86
2023-01-23T16:53:28.118Z,96.82
2023-01-23T16:55:57.655Z,97.61
2023-01-23T16:58:39.288Z,97.34
2023-01-23T17:01:16.072Z,96.28
2023-01-23T17:03:44.392Z,95.91
2023-01-23T17:06:16.090Z,95.14
2023-01-23T17:08:43.280Z,96.43
2023-01-23T17:11:37.956Z,95.86
2023-01-23T17:14:09.093Z,95.43
2023-01-23T17:16:36.127Z,95.25
2023-01-23T17:19:10.438Z,95.54
2023-01-23T17:21:37.294Z,95.62
2023-01-23T17:24:04.443Z,96.00
2023-01-23T17:26:40.997Z,94.76
2023-01-23T17:29:08.709Z,95.26
2023-01-23T17:31:37.623Z,95.22
2023-01-23T17:34:05.488Z,96.67
2023-01-23T17:36:32.671Z,95.89
2023-01-23T17:39:00.184Z,95.26
2023-01-23T17:41:27.182Z,95.96
2023-01-23T17:43:54.155Z,95.92
2023-01-23T17:46:26.320Z,95.39
2023-01-23T17:48:54.517Z,95.71
2023-01-23T17:51:23.315Z,95.04
2023-01-23T17:53:50.614Z,95.53
2023-01-23T17:56:17.678Z,96.03
2023-01-23T17:58:44.873Z,95.36
2023-01-23T18:01:24.438Z,95.26
2023-01-23T18:03:52.544Z,95.32
2023-01-23T18:06:19.624Z,94.80
2023-01-23T18:08:46.829Z,95.74
2023-01-23T18:11:24.338Z,94.40
2023-01-23T18:14:15.622Z,95.98
2023-01-23T18:16:45.923Z,96.32
2023-01-23T18:19:21.606Z,95.34
2023-01-23T18:21:51.668Z,95.04
2023-01-23T18:24:30.553Z,94.87
2023-01-23T18:27:27.168Z,95.09
2023-01-23T18:30:06.431Z,94.86
2023-01-23T18:33:11.379Z,95.18
2023-01-23T18:36:00.873Z,96.29
2023-01-23T18:38:47.581Z,96.38
2023-01-23T18:41:20.368Z,95.25
2023-01-23T18:43:59.675Z,97.09
2023-01-23T18:46:28.970Z,96.62
2023-01-23T18:48:58.273Z,96.96
2023-01-23T18:51:36.117Z,96.31
2023-01-23T18:54:13.380Z,95.28
2023-01-23T18:56:57.161Z,96.86
2023-01-23T18:59:34.650Z,95.45
2023-01-23T19:02:26.735Z,95.91
2023-01-23T19:05:15.572Z,96.32
2023-01-23T19:07:46.296Z,95.01
2023-01-23T19:10:21.008Z,94.41
2023-01-23T19:13:16.458Z,94.72
2023-01-23T19:15:43.556Z,94.57
2023-01-23T19:18:14.236Z,95.14
2023-01-23T19:20:52.276Z,95.79
2023-01-23T19:23:41.960Z,94.45
2023-01-23T19:26:15.577Z,94.50
2023-01-23T19:28:45.075Z,95.42
2023-01-23T19:31:34.857Z,96.25
2023-01-23T19:34:04.747Z,96.53
2023-01-23T19:36:36.005Z,96.05
2023-01-23T19:39:08.125Z,95.98
2023-01-23T19:41:50.529Z,96.80
2023-01-23T19:44:22.402Z,94.67
2023-01-23T19:46:50.889Z,95.16
2023-01-23T19:49:19.077Z,95.52
2023-01-23T19:51:48.437Z,96.25
2023-01-23T19:54:17.314Z,95.36
2023-01-23T19:56:45.079Z,94.75
2023-01-23T19:59:46.171Z,95.42
2023-01-23T20:02:20.989Z,96.43
2023-01-23T20:04:48.280Z,95.82
2023-01-23T20:07:15.046Z,95.31
2023-01-23T20:09:42.278Z,95.16
2023-01-23T20:12:12.462Z,95.66
2023-01-23T20:14:39.815Z,95.77
2023-01-23T20:17:07.163Z,94.87
2023-01-23T20:19:34.532Z,94.54
2023-01-23T20:22:01.691Z,95.66
2023-01-23T20:24:29.135Z,95.60
2023-01-23T20:26:56.322Z,95.06
2023-01-23T20:32:33.986Z,95.87
2023-01-23T20:35:01.489Z,94.82
2023-01-23T20:37:28.482Z,94.20
2023-01-23T20:39:55.505Z,95.17
2023-01-23T20:42:22.430Z,96.30
2023-01-23T20:44:49.485Z,94.94
2023-01-23T20:47:16.291Z,95.26
2023-01-23T20:49:43.790Z,95.56
2023-01-23T20:52:29.248Z,96.54
2023-01-23T20:54:56.091Z,97.21
2023-01-23T20:57:22.852Z,96.10
2023-01-23T20:59:49.699Z,96.86
2023-01-23T21:02:28.305Z,96.25
2023-01-23T21:04:55.619Z,96.51
2023-01-23T21:07:22.957Z,95.72
2023-01-23T21:09:50.036Z,96.27
2023-01-23T21:12:16.947Z,95.00
2023-01-23T21:14:43.682Z,95.93
2023-01-23T21:17:10.508Z,95.25
2023-01-23T21:19:39.082Z,95.57
2023-01-23T21:22:06.918Z,95.01
2023-01-23T21:24:39.490Z,95.62
2023-01-23T21:27:13.608Z,95.11
2023-01-23T21:29:40.598Z,95.29
2023-01-23T21:32:07.408Z,95.44
2023-01-23T21:34:34.255Z,95.60
2023-01-23T21:37:01.103Z,94.77
2023-01-23T21:39:27.947Z,93.85
2023-01-23T21:41:54.716Z,94.97
2023-01-23T21:44:21.526Z,96.47
2023-01-23T21:46:49.220Z,95.15
2023-01-23T21:49:16.080Z,95.12
2023-01-23T21:51:44.765Z,94.74
2023-01-23T21:54:11.663Z,95.23
2023-01-23T21:56:38.536Z,94.13
2023-01-23T21:59:05.570Z,94.38
2023-01-23T22:01:33.257Z,95.59
2023-01-23T22:04:09.303Z,95.52
2023-01-23T22:06:38.210Z,94.62
2023-01-23T22:09:05.716Z,93.90
2023-01-23T22:11:32.906Z,94.65
2023-01-23T22:14:00.248Z,95.42
2023-01-23T22:16:45.634Z,94.38
2023-01-23T22:19:15.592Z,94.64
2023-01-23T22:21:43.867Z,94.23
2023-01-23T22:24:10.936Z,95.50
2023-01-23T22:26:37.873Z,97.00
2023-01-23T22:29:04.728Z,96.46
2023-01-23T22:31:31.720Z,94.82
2023-01-23T22:33:58.603Z,94.79
2023-01-23T22:36:25.775Z,96.01
2023-01-23T22:38:54.394Z,95.10
2023-01-23T22:41:22.200Z,95.05
2023-01-23T22:43:56.925Z,95.06
2023-01-23T22:46:24.095Z,95.09
2023-01-23T22:48:51.765Z,96.29
2023-01-23T22:51:24.180Z,96.43
2023-01-23T22:53:52.427Z,97.73
2023-01-23T22:56:19.531Z,97.66
2023-01-23T22:58:50.817Z,97.69
2023-01-23T23:01:18.456Z,98.13
2023-01-23T23:03:45.544Z,99.36
2023-01-23T23:06:14.519Z,97.85
2023-01-23T23:08:42.194Z,95.25
2023-01-23T23:11:19.311Z,94.59
2023-01-23T23:13:46.648Z,94.43
2023-01-23T23:16:26.143Z,93.98
2023-01-23T23:18:55.317Z,94.37
2023-01-23T23:21:25.384Z,94.47
2023-01-23T23:23:57.304Z,94.19
2023-01-23T23:26:26.502Z,96.51
2023-01-23T23:28:54.705Z,96.19
2023-01-23T23:31:21.683Z,96.94
2023-01-23T23:33:48.501Z,98.21
2023-01-23T23:36:15.331Z,98.25
2023-01-23T23:38:42.239Z,98.73
2023-01-23T23:41:12.554Z,98.65
2023-01-23T23:43:39.591Z,99.45
2023-01-23T23:46:08.192Z,98.52
2023-01-23T23:48:36.751Z,97.97
2023-01-23T23:51:06.696Z,99.29
2023-01-23T23:53:34.787Z,99.47
2023-01-23T23:56:01.685Z,99.00
2023-01-23T23:58:28.542Z,98.64
